createdAt,value
2022-11-05T00:00:36.382Z,1.54
2022-11-05T00:03:03.280Z,1.62
2022-11-05T00:05:30.199Z,1.54
2022-11-05T00:07:59.247Z,1.52
2022-11-05T00:10:29.723Z,1.46
2022-11-05T00:12:58.802Z,1.60
2022-11-05T00:15:25.332Z,1.66
2022-11-05T00:17:51.868Z,1.75
2022-11-05T00:20:18.573Z,1.67
2022-11-05T00:22:45.098Z,1.65
2022-11-05T00:25:11.712Z,1.58
2022-11-05T00:27:38.281Z,1.65
2022-11-05T00:30:05.442Z,1.54
2022-11-05T00:32:32.037Z,1.56
2022-11-05T00:34:58.686Z,1.62
2022-11-05T00:37:27.622Z,1.58
2022-11-05T00:39:54.118Z,1.50
2022-11-05T00:42:20.811Z,1.60
2022-11-05T00:44:47.285Z,1.71
2022-11-05T00:47:13.816Z,1.45
2022-11-05T00:49:40.484Z,1.47
2022-11-05T00:52:06.980Z,1.25
2022-11-05T00:54:33.470Z,1.19
2022-11-05T00:57:04.481Z,1.23
2022-11-05T00:59:31.347Z,1.21
2022-11-05T01:01:58.045Z,1.27
2022-11-05T01:04:25.019Z,1.17
2022-11-05T01:06:51.559Z,1.25
2022-11-05T01:09:18.082Z,1.24
2022-11-05T01:11:44.771Z,1.23
2022-11-05T01:14:14.507Z,1.13
2022-11-05T01:16:41.562Z,1.21
2022-11-05T01:19:10.358Z,1.15
2022-11-05T01:21:36.942Z,1.11
2022-11-05T01:24:04.294Z,1.20
2022-11-05T01:26:30.997Z,1.16
2022-11-05T01:28:58.872Z,1.11
2022-11-05T01:31:25.496Z,1.01
2022-11-05T01:33:52.079Z,0.95
2022-11-05T01:36:18.748Z,0.94
2022-11-05T01:38:45.382Z,0.99
2022-11-05T01:41:12.135Z,0.96
2022-11-05T01:43:47.823Z,0.95
2022-11-05T01:46:16.025Z,0.96
2022-11-05T01:48:42.797Z,0.92
2022-11-05T01:51:13.782Z,1.03
2022-11-05T01:53:48.539Z,0.94
2022-11-05T01:56:20.233Z,0.87
2022-11-05T01:58:56.752Z,0.95
2022-11-05T02:01:23.526Z,0.94
2022-11-05T02:03:53.479Z,0.95
2022-11-05T02:06:21.245Z,0.98
2022-11-05T02:08:56.956Z,1.04
2022-11-05T02:11:24.255Z,1.07
2022-11-05T02:13:51.065Z,0.91
2022-11-05T02:16:55.854Z,0.92
2022-11-05T02:19:34.255Z,1.03
2022-11-05T02:22:24.569Z,0.96
2022-11-05T02:25:31.093Z,0.83
2022-11-05T02:28:22.374Z,0.85
2022-11-05T02:31:17.258Z,0.94
2022-11-05T02:34:13.347Z,0.80
2022-11-05T02:36:54.615Z,0.87
2022-11-05T02:39:21.142Z,0.90
2022-11-05T02:41:47.648Z,0.88
2022-11-05T02:44:34.621Z,0.84
2022-11-05T02:47:19.275Z,0.87
2022-11-05T02:49:53.980Z,0.75
2022-11-05T02:52:28.434Z,0.78
2022-11-05T02:55:16.651Z,0.90
2022-11-05T02:57:47.610Z,0.84
2022-11-05T03:00:35.950Z,0.75
2022-11-05T03:03:05.588Z,0.80
2022-11-05T03:05:46.256Z,0.90
2022-11-05T03:08:25.881Z,0.95
2022-11-05T03:11:02.510Z,0.91
2022-11-05T03:13:37.218Z,0.83
2022-11-05T03:16:12.574Z,0.82
2022-11-05T03:18:49.455Z,0.72
2022-11-05T03:21:31.327Z,0.75
2022-11-05T03:24:13.317Z,0.87
2022-11-05T03:26:53.539Z,0.84
2022-11-05T03:29:25.035Z,0.68
2022-11-05T03:31:55.039Z,0.83
2022-11-05T03:34:27.982Z,0.81
2022-11-05T03:36:57.312Z,0.73
2022-11-05T03:39:31.788Z,0.56
2022-11-05T03:42:01.271Z,0.61
2022-11-05T03:44:32.628Z,0.67
2022-11-05T03:47:07.530Z,0.72
2022-11-05T03:49:43.152Z,0.68
2022-11-05T03:52:18.457Z,0.74
2022-11-05T03:54:46.129Z,0.77
2022-11-05T03:57:35.526Z,0.65
2022-11-05T04:00:05.936Z,0.76
2022-11-05T04:02:32.769Z,0.76
2022-11-05T04:04:59.571Z,0.79
2022-11-05T04:07:26.124Z,0.75
2022-11-05T04:09:53.003Z,0.81
2022-11-05T04:12:19.615Z,0.67
2022-11-05T04:14:46.095Z,0.75
2022-11-05T04:17:12.676Z,0.73
2022-11-05T04:19:41.300Z,0.82
2022-11-05T04:22:07.825Z,0.74
2022-11-05T04:24:34.303Z,0.70
2022-11-05T04:27:00.886Z,0.70
2022-11-05T04:29:27.475Z,0.72
2022-11-05T04:31:54.159Z,0.69
2022-11-05T04:34:21.204Z,0.68
2022-11-05T04:36:51.793Z,0.75
2022-11-05T04:39:19.370Z,0.78
2022-11-05T04:41:46.842Z,0.83
2022-11-05T04:44:14.094Z,0.76
2022-11-05T04:46:41.009Z,0.76
2022-11-05T04:49:07.849Z,0.78
2022-11-05T04:51:34.343Z,0.87
2022-11-05T04:54:00.839Z,0.72
2022-11-05T04:56:27.604Z,0.66
2022-11-05T04:58:54.084Z,0.70
2022-11-05T05:01:22.876Z,0.77
2022-11-05T05:03:51.510Z,0.74
2022-11-05T05:06:18.923Z,0.81
2022-11-05T05:08:50.162Z,0.89
2022-11-05T05:11:19.578Z,0.95
2022-11-05T05:13:46.248Z,0.86
2022-11-05T05:16:22.319Z,0.82
2022-11-05T05:18:49.461Z,0.98
2022-11-05T05:21:17.883Z,1.04
2022-11-05T05:23:44.664Z,1.14
2022-11-05T05:26:11.203Z,1.06
2022-11-05T05:28:37.700Z,1.04
2022-11-05T05:31:04.279Z,1.17
2022-11-05T05:33:30.786Z,1.11
2022-11-05T05:35:58.491Z,1.15
2022-11-05T05:38:25.159Z,1.21
2022-11-05T05:40:52.152Z,1.23
2022-11-05T05:43:18.740Z,1.15
2022-11-05T05:45:46.653Z,1.07
2022-11-05T05:48:13.150Z,1.18
2022-11-05T05:50:39.654Z,1.24
2022-11-05T05:53:06.381Z,1.20
2022-11-05T05:55:33.085Z,1.23
2022-11-05T05:57:59.637Z,1.28
2022-11-05T06:00:26.203Z,1.21
2022-11-05T06:02:55.750Z,1.20
2022-11-05T06:05:22.622Z,1.32
2022-11-05T06:07:58.434Z,1.23
2022-11-05T06:10:25.310Z,1.26
2022-11-05T06:12:54.216Z,1.26
2022-11-05T06:15:20.931Z,1.27
2022-11-05T06:17:47.441Z,1.31
2022-11-05T06:20:14.015Z,1.24
2022-11-05T06:22:40.782Z,1.38
2022-11-05T06:25:08.289Z,1.23
2022-11-05T06:27:35.104Z,1.23
2022-11-05T06:30:01.793Z,1.27
2022-11-05T06:32:28.386Z,1.35
2022-11-05T06:34:54.911Z,1.44
2022-11-05T06:37:21.573Z,1.51
2022-11-05T06:39:48.156Z,1.65
2022-11-05T06:42:18.954Z,1.37
2022-11-05T06:44:46.087Z,1.43
2022-11-05T06:47:12.691Z,1.37
2022-11-05T06:49:39.166Z,1.45
2022-11-05T06:52:05.874Z,1.50
2022-11-05T06:54:32.400Z,1.56
2022-11-05T06:56:58.913Z,1.48
2022-11-05T06:59:25.497Z,1.42
2022-11-05T07:01:52.147Z,1.31
2022-11-05T07:04:21.217Z,1.19
2022-11-05T07:06:47.875Z,1.21
2022-11-05T07:09:15.256Z,1.29
2022-11-05T07:11:41.911Z,1.27
2022-11-05T07:14:08.821Z,1.20
2022-11-05T07:16:35.356Z,1.17
2022-11-05T07:19:01.921Z,1.17
2022-11-05T07:21:29.043Z,1.16
2022-11-05T07:23:55.707Z,1.17
2022-11-05T07:26:22.211Z,1.17
2022-11-05T07:28:50.823Z,1.27
2022-11-05T07:31:17.345Z,1.30
2022-11-05T07:33:43.969Z,1.44
2022-11-05T07:36:10.657Z,1.34
2022-11-05T07:38:37.221Z,1.33
2022-11-05T07:41:04.178Z,1.35
2022-11-05T07:43:30.931Z,1.37
2022-11-05T07:45:57.487Z,1.44
2022-11-05T07:48:24.192Z,1.54
2022-11-05T07:50:53.378Z,1.59
2022-11-05T07:53:23.012Z,1.46
2022-11-05T07:55:49.630Z,1.44
2022-11-05T07:58:16.441Z,1.39
2022-11-05T08:00:43.057Z,1.19
2022-11-05T08:03:14.315Z,1.25
2022-11-05T08:05:43.702Z,1.32
2022-11-05T08:08:13.326Z,1.24
2022-11-05T08:10:43.800Z,1.24
2022-11-05T08:13:12.503Z,1.27
2022-11-05T08:15:39.367Z,1.16
2022-11-05T08:18:10.628Z,1.20
2022-11-05T08:20:37.605Z,1.21
2022-11-05T08:23:06.324Z,1.22
2022-11-05T08:25:33.247Z,1.27
2022-11-05T08:28:05.232Z,1.24
2022-11-05T08:30:32.493Z,1.38
2022-11-05T08:33:01.766Z,1.34
2022-11-05T08:35:29.691Z,1.28
2022-11-05T08:37:57.867Z,1.25
2022-11-05T08:40:25.255Z,1.33
2022-11-05T08:42:52.572Z,1.16
2022-11-05T08:45:19.170Z,1.25
2022-11-05T08:47:48.642Z,1.36
2022-11-05T08:50:15.325Z,1.26
2022-11-05T08:52:41.892Z,1.17
2022-11-05T08:55:08.915Z,1.22
2022-11-05T08:57:35.510Z,1.22
2022-11-05T09:00:04.794Z,1.10
2022-11-05T09:02:31.419Z,1.08
2022-11-05T09:04:58.030Z,1.01
2022-11-05T09:07:24.705Z,0.99
2022-11-05T09:09:51.326Z,0.99
2022-11-05T09:12:18.037Z,1.08
2022-11-05T09:14:44.524Z,1.01
2022-11-05T09:17:22.163Z,0.95
2022-11-05T09:19:49.070Z,1.02
2022-11-05T09:22:15.850Z,0.99
2022-11-05T09:24:43.350Z,1.14
2022-11-05T09:27:11.627Z,1.17
2022-11-05T09:29:38.165Z,1.05
2022-11-05T09:32:05.388Z,1.08
2022-11-05T09:34:31.902Z,1.04
2022-11-05T09:36:58.988Z,1.08
2022-11-05T09:39:25.901Z,1.29
2022-11-05T09:41:56.044Z,1.43
2022-11-05T09:44:29.251Z,1.42
2022-11-05T09:47:04.846Z,1.38
2022-11-05T09:49:34.269Z,1.43
2022-11-05T09:52:02.135Z,1.34
2022-11-05T09:54:31.307Z,1.37
2022-11-05T09:56:59.944Z,1.36
2022-11-05T09:59:31.483Z,1.40
2022-11-05T10:02:29.340Z,1.53
2022-11-05T10:05:02.408Z,1.45
2022-11-05T10:07:42.678Z,1.48
2022-11-05T10:10:24.342Z,1.33
2022-11-05T10:12:55.154Z,1.35
2022-11-05T10:15:36.362Z,1.40
2022-11-05T10:18:23.287Z,1.36
2022-11-05T10:20:49.822Z,1.39
2022-11-05T10:23:20.764Z,1.37
2022-11-05T10:25:50.386Z,1.45
2022-11-05T10:28:20.656Z,1.59
2022-11-05T10:30:52.421Z,1.55
2022-11-05T10:33:45.911Z,1.67
2022-11-05T10:36:26.576Z,1.60
2022-11-05T10:38:56.978Z,1.58
2022-11-05T10:41:30.352Z,1.64
2022-11-05T10:44:17.621Z,1.67
2022-11-05T10:47:05.008Z,1.60
2022-11-05T10:50:04.280Z,1.38
2022-11-05T10:52:53.755Z,0.99
2022-11-05T10:55:31.642Z,1.00
2022-11-05T10:58:13.512Z,1.16
2022-11-05T11:00:40.207Z,1.23
2022-11-05T11:03:39.076Z,1.30
2022-11-05T11:06:19.706Z,1.07
2022-11-05T11:08:48.674Z,1.09
2022-11-05T11:11:34.494Z,1.02
2022-11-05T11:14:11.697Z,0.93
2022-11-05T11:16:39.681Z,0.88
2022-11-05T11:19:25.620Z,0.88
2022-11-05T11:22:04.253Z,1.01
2022-11-05T11:24:51.473Z,0.98
2022-11-05T11:27:32.186Z,0.94
2022-11-05T11:30:00.903Z,0.98
2022-11-05T11:32:34.097Z,1.15
2022-11-05T11:35:01.106Z,1.10
2022-11-05T11:37:35.376Z,1.22
2022-11-05T11:40:12.914Z,1.08
2022-11-05T11:42:43.999Z,1.14
2022-11-05T11:45:38.274Z,1.16
2022-11-05T11:48:06.530Z,1.01
2022-11-05T11:50:44.631Z,0.95
2022-11-05T11:53:20.449Z,0.99
2022-11-05T11:55:55.846Z,0.99
2022-11-05T11:58:24.457Z,0.97
2022-11-05T12:00:59.877Z,0.90
2022-11-05T12:03:36.884Z,0.92
2022-11-05T12:06:31.581Z,0.88
2022-11-05T12:09:06.393Z,0.98
2022-11-05T12:11:46.033Z,0.92
2022-11-05T12:14:34.647Z,0.77
2022-11-05T12:17:07.319Z,0.65
2022-11-05T12:19:55.416Z,0.66
2022-11-05T12:22:46.738Z,0.72
2022-11-05T12:25:13.331Z,0.78
2022-11-05T12:27:39.815Z,0.75
2022-11-05T12:30:16.570Z,0.63
2022-11-05T12:32:55.794Z,0.72
2022-11-05T12:35:25.013Z,0.79
2022-11-05T12:38:19.401Z,0.64
2022-11-05T12:41:16.229Z,0.62
2022-11-05T12:44:07.279Z,0.67
2022-11-05T12:46:57.996Z,0.58
2022-11-05T12:49:47.172Z,0.60
2022-11-05T12:52:47.499Z,0.51
2022-11-05T12:55:19.431Z,0.49
2022-11-05T12:57:52.000Z,0.44
2022-11-05T13:00:27.846Z,0.53
2022-11-05T13:02:54.520Z,0.73
2022-11-05T13:05:40.680Z,0.74
2022-11-05T13:08:10.558Z,0.79
2022-11-05T13:10:45.497Z,0.87
2022-11-05T13:13:35.225Z,0.98
2022-11-05T13:16:07.377Z,0.90
2022-11-05T13:18:45.975Z,1.03
2022-11-05T13:21:13.114Z,1.02
2022-11-05T13:23:54.635Z,0.99
2022-11-05T13:26:36.262Z,0.97
2022-11-05T13:29:11.480Z,0.90
2022-11-05T13:31:43.464Z,0.96
2022-11-05T13:34:12.238Z,1.02
2022-11-05T13:36:58.688Z,1.06
2022-11-05T13:39:29.075Z,1.18
2022-11-05T13:42:28.566Z,1.30
2022-11-05T13:45:21.305Z,1.26
2022-11-05T13:48:11.965Z,1.23
2022-11-05T13:51:24.604Z,0.98
2022-11-05T13:53:51.145Z,0.93
2022-11-05T13:56:54.822Z,0.98
2022-11-05T13:59:52.814Z,1.13
2022-11-05T14:02:28.545Z,1.21
2022-11-05T14:05:01.335Z,1.33
2022-11-05T14:07:43.475Z,1.41
2022-11-05T14:10:22.253Z,1.31
2022-11-05T14:12:52.285Z,1.07
2022-11-05T14:15:23.550Z,1.05
2022-11-05T14:17:58.978Z,0.85
2022-11-05T14:20:37.661Z,0.82
2022-11-05T14:23:22.048Z,0.63
2022-11-05T14:25:57.390Z,0.62
2022-11-05T14:28:35.836Z,0.60
2022-11-05T14:31:04.706Z,0.50
2022-11-05T14:33:37.323Z,0.55
2022-11-05T14:36:22.011Z,0.59
2022-11-05T14:38:56.111Z,0.45
2022-11-05T14:41:25.557Z,0.38
2022-11-05T14:43:59.400Z,0.36
2022-11-05T14:46:42.926Z,0.44
2022-11-05T14:49:27.393Z,0.37
2022-11-05T14:51:56.923Z,0.49
2022-11-05T14:54:34.544Z,0.64
2022-11-05T14:57:02.182Z,0.79
2022-11-05T14:59:30.767Z,0.86
2022-11-05T15:02:38.777Z,0.80
2022-11-05T15:05:48.633Z,0.81
2022-11-05T15:08:51.938Z,0.80
2022-11-05T15:11:24.633Z,0.73
2022-11-05T15:13:54.792Z,0.55
2022-11-05T15:16:52.220Z,0.58
2022-11-05T15:19:34.621Z,0.61
2022-11-05T15:22:05.616Z,0.67
2022-11-05T15:24:33.566Z,0.72
2022-11-05T15:27:05.859Z,0.65
2022-11-05T15:29:33.151Z,0.75
2022-11-05T15:32:00.392Z,0.74
2022-11-05T15:34:36.876Z,0.80
2022-11-05T15:37:12.189Z,0.74
2022-11-05T15:39:41.863Z,0.65
2022-11-05T15:42:19.982Z,0.52
2022-11-05T15:44:52.607Z,0.52
2022-11-05T15:47:35.784Z,0.32
2022-11-05T15:50:14.632Z,0.43
2022-11-05T15:52:53.122Z,0.41
2022-11-05T15:55:22.448Z,0.52
2022-11-05T15:58:05.180Z,0.60
2022-11-05T16:00:34.744Z,0.43
2022-11-05T16:03:17.033Z,0.52
2022-11-05T16:05:46.948Z,0.49
2022-11-05T16:08:20.978Z,0.53
2022-11-05T16:10:50.945Z,0.56
2022-11-05T16:13:35.970Z,0.61
2022-11-05T16:16:06.993Z,0.71
2022-11-05T16:18:37.709Z,0.82
2022-11-05T16:21:05.816Z,1.03
2022-11-05T16:23:53.015Z,1.09
2022-11-05T16:27:01.210Z,1.16
2022-11-05T16:29:37.763Z,1.25
2022-11-05T16:32:15.690Z,1.40
2022-11-05T16:34:47.779Z,1.37
2022-11-05T16:37:18.252Z,1.38
2022-11-05T16:39:44.843Z,1.37
2022-11-05T16:42:23.677Z,1.36
2022-11-05T16:44:55.033Z,1.40
2022-11-05T16:47:22.798Z,1.43
2022-11-05T16:49:49.579Z,1.49
2022-11-05T16:52:16.734Z,1.43
2022-11-05T16:54:43.406Z,1.31
2022-11-05T16:57:22.037Z,1.03
2022-11-05T16:59:48.709Z,0.88
2022-11-05T17:02:15.301Z,0.74
2022-11-05T17:04:42.097Z,0.69
2022-11-05T17:07:08.716Z,0.60
2022-11-05T17:09:35.417Z,0.63
2022-11-05T17:12:02.061Z,0.74
2022-11-05T17:14:28.908Z,0.80
2022-11-05T17:16:55.507Z,0.87
2022-11-05T17:19:22.148Z,0.97
2022-11-05T17:21:48.694Z,1.08
2022-11-05T17:24:15.175Z,1.17
2022-11-05T17:26:41.882Z,1.28
2022-11-05T17:29:08.419Z,1.39
2022-11-05T17:31:34.952Z,1.41
2022-11-05T17:34:01.622Z,1.39
2022-11-05T17:36:28.213Z,1.33
2022-11-05T17:38:54.803Z,1.31
2022-11-05T17:41:23.290Z,1.22
2022-11-05T17:43:55.778Z,1.28
2022-11-05T17:46:26.110Z,1.23
2022-11-05T17:48:52.697Z,1.27
2022-11-05T17:51:20.355Z,1.35
2022-11-05T17:53:47.869Z,1.43
2022-11-05T17:56:24.615Z,1.44
2022-11-05T17:58:56.012Z,1.41
2022-11-05T18:01:28.963Z,1.29
2022-11-05T18:03:55.905Z,1.23
2022-11-05T18:06:22.463Z,1.20
2022-11-05T18:08:50.260Z,1.09
2022-11-05T18:11:17.619Z,1.20
2022-11-05T18:13:44.195Z,1.09
2022-11-05T18:16:10.751Z,1.21
2022-11-05T18:18:37.308Z,1.32
2022-11-05T18:21:04.092Z,1.42
2022-11-05T18:23:30.731Z,1.57
2022-11-05T18:25:57.457Z,1.60
2022-11-05T18:28:24.059Z,1.56
2022-11-05T18:30:50.605Z,1.55
2022-11-05T18:33:17.507Z,1.32
2022-11-05T18:35:44.603Z,1.28
2022-11-05T18:38:14.342Z,1.36
2022-11-05T18:40:41.010Z,1.36
2022-11-05T18:43:07.576Z,1.39
2022-11-05T18:45:34.322Z,1.46
2022-11-05T18:48:01.683Z,1.52
2022-11-05T18:50:29.313Z,1.51
2022-11-05T18:52:56.685Z,1.54
2022-11-05T18:55:27.004Z,1.68
2022-11-05T18:57:53.735Z,1.71
2022-11-05T19:00:21.183Z,1.75
2022-11-05T19:02:47.884Z,1.73
2022-11-05T19:05:28.433Z,1.63
2022-11-05T19:07:57.228Z,1.52
2022-11-05T19:10:24.398Z,1.38
2022-11-05T19:12:50.961Z,1.13
2022-11-05T19:15:18.350Z,0.98
2022-11-05T19:17:44.850Z,0.95
2022-11-05T19:20:11.983Z,1.01
2022-11-05T19:22:38.730Z,0.97
2022-11-05T19:25:06.052Z,1.02
2022-11-05T19:27:34.524Z,0.76
2022-11-05T19:30:01.249Z,0.69
2022-11-05T19:32:27.840Z,0.79
2022-11-05T19:34:54.409Z,0.80
2022-11-05T19:37:21.086Z,0.89
2022-11-05T19:39:47.560Z,0.89
2022-11-05T19:42:14.034Z,0.87
2022-11-05T19:44:41.373Z,0.85
2022-11-05T19:47:07.890Z,0.92
2022-11-05T19:49:34.451Z,0.93
2022-11-05T19:52:01.179Z,1.08
2022-11-05T19:54:27.746Z,1.24
2022-11-05T19:56:54.325Z,1.27
2022-11-05T19:59:21.032Z,1.26
2022-11-05T20:01:48.244Z,1.32
2022-11-05T20:04:15.274Z,1.38
2022-11-05T20:06:41.851Z,1.31
2022-11-05T20:09:21.563Z,1.21
2022-11-05T20:11:50.451Z,1.15
2022-11-05T20:14:17.306Z,1.07
2022-11-05T20:16:45.254Z,1.12
2022-11-05T20:19:17.364Z,1.16
2022-11-05T20:21:44.262Z,1.26
2022-11-05T20:24:12.553Z,1.30
2022-11-05T20:26:39.611Z,1.38
2022-11-05T20:29:06.509Z,1.46
2022-11-05T20:31:33.361Z,1.48
2022-11-05T20:33:59.972Z,1.43
2022-11-05T20:36:26.660Z,1.48
2022-11-05T20:38:55.929Z,1.49
2022-11-05T20:41:22.750Z,1.45
2022-11-05T20:43:49.570Z,1.42
2022-11-05T20:46:18.763Z,1.40
2022-11-05T20:48:45.763Z,1.40
2022-11-05T20:51:14.881Z,1.44
2022-11-05T20:53:42.143Z,1.42
2022-11-05T20:56:15.404Z,1.38
2022-11-05T20:58:41.900Z,1.53
2022-11-05T21:01:10.908Z,1.61
2022-11-05T21:03:37.614Z,1.70
2022-11-05T21:06:05.542Z,1.69
2022-11-05T21:08:33.321Z,1.65
2022-11-05T21:10:59.917Z,1.67
2022-11-05T21:13:27.226Z,1.69
2022-11-05T21:15:58.992Z,1.71
2022-11-05T21:18:36.534Z,1.75
2022-11-05T21:21:08.472Z,1.70
2022-11-05T21:23:35.101Z,1.75
2022-11-05T21:26:10.667Z,1.72
2022-11-05T21:28:39.718Z,1.72
2022-11-05T21:31:07.308Z,1.62
2022-11-05T21:33:34.169Z,1.56
2022-11-05T21:36:09.544Z,1.52
2022-11-05T21:38:36.321Z,1.45
2022-11-05T21:41:03.410Z,1.46
2022-11-05T21:43:30.073Z,1.49
2022-11-05T21:46:01.593Z,1.52
2022-11-05T21:48:28.252Z,1.45
2022-11-05T21:50:54.896Z,1.41
2022-11-05T21:53:21.554Z,1.33
2022-11-05T21:55:48.094Z,1.30
2022-11-05T21:58:16.707Z,1.33
2022-11-05T22:00:43.226Z,1.36
2022-11-05T22:03:09.745Z,1.41
2022-11-05T22:05:36.416Z,1.48
2022-11-05T22:08:03.096Z,1.53
2022-11-05T22:10:29.982Z,1.56
2022-11-05T22:12:56.613Z,1.58
2022-11-05T22:15:23.676Z,1.60
2022-11-05T22:17:51.086Z,1.55
2022-11-05T22:20:17.720Z,1.63
2022-11-05T22:22:44.884Z,1.67
2022-11-05T22:25:12.172Z,1.64
2022-11-05T22:27:38.886Z,1.58
2022-11-05T22:30:06.082Z,1.56
2022-11-05T22:32:32.675Z,1.60
2022-11-05T22:34:59.149Z,1.59
2022-11-05T22:37:25.795Z,1.63
2022-11-05T22:39:52.269Z,1.69
2022-11-05T22:42:18.863Z,1.75
2022-11-05T22:44:45.538Z,1.73
2022-11-05T22:47:12.002Z,1.69
2022-11-05T22:49:38.482Z,1.68
2022-11-05T22:52:05.297Z,1.67
2022-11-05T22:54:36.377Z,1.63
2022-11-05T22:57:05.473Z,1.61
2022-11-05T22:59:32.069Z,1.57
2022-11-05T23:01:58.781Z,1.57
2022-11-05T23:04:25.379Z,1.51
2022-11-05T23:06:51.957Z,1.47
2022-11-05T23:09:28.554Z,1.43
2022-11-05T23:11:55.142Z,1.42
2022-11-05T23:14:21.622Z,1.40
2022-11-05T23:16:48.093Z,1.36
2022-11-05T23:19:14.782Z,1.35
2022-11-05T23:21:41.318Z,1.34
2022-11-05T23:24:08.129Z,1.15
2022-11-05T23:26:37.208Z,1.12
2022-11-05T23:29:03.784Z,1.13
2022-11-05T23:31:30.327Z,1.09
2022-11-05T23:33:57.114Z,1.17
2022-11-05T23:36:23.666Z,1.21
2022-11-05T23:38:50.158Z,1.24
2022-11-05T23:41:16.862Z,1.26
2022-11-05T23:43:43.408Z,1.26
2022-11-05T23:46:09.927Z,1.25
2022-11-05T23:48:37.836Z,1.12
2022-11-05T23:51:09.859Z,1.16
2022-11-05T23:53:38.773Z,1.21
2022-11-05T23:56:06.993Z,1.09
2022-11-05T23:58:33.868Z,1.15
